createdAt,value
2023-02-12T00:00:44.306Z,88.40
2023-02-12T00:03:11.045Z,88.31
2023-02-12T00:05:38.909Z,88.44
2023-02-12T00:08:05.665Z,88.38
2023-02-12T00:10:38.839Z,88.33
2023-02-12T00:13:05.842Z,88.37
2023-02-12T00:15:32.212Z,88.26
2023-02-12T00:17:58.557Z,88.37
2023-02-12T00:20:24.936Z,88.17
2023-02-12T00:22:52.560Z,88.17
2023-02-12T00:25:19.246Z,88.27
2023-02-12T00:27:45.779Z,88.33
2023-02-12T00:30:12.483Z,88.29
2023-02-12T00:32:38.873Z,88.30
2023-02-12T00:35:05.385Z,88.31
2023-02-12T00:37:31.843Z,88.24
2023-02-12T00:39:58.200Z,88.26
2023-02-12T00:42:24.528Z,88.38
2023-02-12T00:44:50.930Z,88.35
2023-02-12T00:47:17.255Z,88.27
2023-02-12T00:49:43.646Z,88.46
2023-02-12T00:52:09.988Z,88.33
2023-02-12T00:54:36.432Z,88.31
2023-02-12T00:57:06.443Z,88.20
2023-02-12T00:59:36.086Z,88.20
2023-02-12T01:02:02.469Z,88.26
2023-02-12T01:04:28.791Z,88.33
2023-02-12T01:06:55.394Z,88.25
2023-02-12T01:09:21.983Z,88.28
2023-02-12T01:11:48.332Z,88.40
2023-02-12T01:14:14.639Z,88.33
2023-02-12T01:16:41.144Z,88.45
2023-02-12T01:19:07.477Z,88.47
2023-02-12T01:21:36.581Z,88.57
2023-02-12T01:24:03.248Z,88.29
2023-02-12T01:26:31.012Z,88.50
2023-02-12T01:29:01.334Z,88.30
2023-02-12T01:31:30.414Z,88.32
2023-02-12T01:33:59.811Z,88.37
2023-02-12T01:36:27.796Z,88.32
2023-02-12T01:38:54.810Z,88.38
2023-02-12T01:41:27.425Z,88.46
2023-02-12T01:44:22.777Z,88.35
2023-02-12T01:47:00.210Z,88.35
2023-02-12T01:49:31.690Z,88.26
2023-02-12T01:52:05.224Z,88.27
2023-02-12T01:54:34.169Z,88.38
2023-02-12T01:57:02.634Z,88.18
2023-02-12T01:59:30.867Z,88.18
2023-02-12T02:01:57.787Z,88.23
2023-02-12T02:04:29.276Z,88.25
2023-02-12T02:07:06.476Z,88.15
2023-02-12T02:09:35.995Z,88.05
2023-02-12T02:12:21.058Z,88.18
2023-02-12T02:14:49.197Z,88.12
2023-02-12T02:17:34.356Z,87.92
2023-02-12T02:20:01.495Z,88.18
2023-02-12T02:22:37.841Z,88.19
2023-02-12T02:25:28.658Z,88.36
2023-02-12T02:28:16.885Z,88.44
2023-02-12T02:31:00.733Z,88.64
2023-02-12T02:33:34.406Z,88.53
2023-02-12T02:36:09.630Z,88.64
2023-02-12T02:38:44.292Z,88.67
2023-02-12T02:41:23.743Z,88.84
2023-02-12T02:43:52.389Z,88.84
2023-02-12T02:46:32.599Z,88.82
2023-02-12T02:49:04.576Z,88.90
2023-02-12T02:51:36.260Z,88.87
2023-02-12T02:54:13.682Z,89.10
2023-02-12T02:56:44.876Z,89.03
2023-02-12T02:59:37.521Z,89.07
2023-02-12T03:02:13.779Z,89.25
2023-02-12T03:04:47.928Z,89.14
2023-02-12T03:07:26.008Z,89.18
2023-02-12T03:10:12.102Z,89.26
2023-02-12T03:12:44.963Z,89.22
2023-02-12T03:15:19.394Z,89.40
2023-02-12T03:17:47.884Z,89.41
2023-02-12T03:20:22.661Z,89.49
2023-02-12T03:22:54.582Z,89.54
2023-02-12T03:25:28.390Z,89.76
2023-02-12T03:28:02.437Z,89.85
2023-02-12T03:30:42.073Z,89.83
2023-02-12T03:33:19.587Z,89.84
2023-02-12T03:36:02.457Z,89.75
2023-02-12T03:38:41.850Z,89.86
2023-02-12T03:41:15.139Z,89.91
2023-02-12T03:44:02.009Z,89.95
2023-02-12T03:46:50.697Z,89.88
2023-02-12T03:49:27.258Z,89.82
2023-02-12T03:51:53.947Z,89.77
2023-02-12T03:54:21.860Z,89.86
2023-02-12T03:57:09.836Z,89.77
2023-02-12T03:59:38.249Z,89.79
2023-02-12T04:02:05.045Z,89.68
2023-02-12T04:04:32.238Z,89.75
2023-02-12T04:06:58.997Z,89.88
2023-02-12T04:09:27.773Z,90.05
2023-02-12T04:12:26.877Z,90.10
2023-02-12T04:15:16.027Z,89.77
2023-02-12T04:17:51.522Z,89.57
2023-02-12T04:20:50.327Z,89.87
2023-02-12T04:23:25.809Z,89.78
2023-02-12T04:26:23.795Z,89.79
2023-02-12T04:29:10.133Z,89.65
2023-02-12T04:31:44.163Z,89.79
2023-02-12T04:34:30.739Z,89.69
2023-02-12T04:37:04.078Z,89.69
2023-02-12T04:39:34.341Z,89.88
2023-02-12T04:42:02.021Z,89.79
2023-02-12T04:44:33.789Z,89.75
2023-02-12T04:47:00.697Z,89.84
2023-02-12T04:49:27.620Z,90.01
2023-02-12T04:51:54.031Z,90.04
2023-02-12T04:54:21.327Z,90.03
2023-02-12T04:56:48.264Z,90.07
2023-02-12T04:59:15.153Z,89.78
2023-02-12T05:01:43.021Z,89.89
2023-02-12T05:04:12.372Z,89.86
2023-02-12T05:06:39.516Z,89.84
2023-02-12T05:09:07.585Z,89.96
2023-02-12T05:11:33.931Z,89.91
2023-02-12T05:14:00.674Z,90.01
2023-02-12T05:16:27.395Z,89.95
2023-02-12T05:18:53.729Z,89.99
2023-02-12T05:21:20.038Z,89.92
2023-02-12T05:23:46.397Z,89.86
2023-02-12T05:26:22.062Z,89.98
2023-02-12T05:28:48.488Z,89.91
2023-02-12T05:31:20.769Z,89.86
2023-02-12T05:33:48.771Z,89.97
2023-02-12T05:36:18.325Z,89.96
2023-02-12T05:38:44.692Z,89.83
2023-02-12T05:41:14.121Z,89.88
2023-02-12T05:43:46.067Z,89.92
2023-02-12T05:46:14.296Z,89.88
2023-02-12T05:48:41.153Z,89.80
2023-02-12T05:51:10.663Z,89.94
2023-02-12T05:53:38.311Z,90.04
2023-02-12T05:56:26.103Z,90.25
2023-02-12T05:58:55.787Z,90.18
2023-02-12T06:01:27.809Z,90.06
2023-02-12T06:03:55.069Z,90.10
2023-02-12T06:06:21.819Z,90.14
2023-02-12T06:08:49.278Z,90.17
2023-02-12T06:11:16.791Z,89.96
2023-02-12T06:13:43.992Z,89.74
2023-02-12T06:16:22.382Z,89.91
2023-02-12T06:18:49.609Z,89.72
2023-02-12T06:21:16.808Z,89.63
2023-02-12T06:23:43.354Z,89.67
2023-02-12T06:26:10.301Z,89.51
2023-02-12T06:28:36.846Z,89.75
2023-02-12T06:31:03.474Z,89.54
2023-02-12T06:33:32.544Z,89.67
2023-02-12T06:36:03.500Z,89.50
2023-02-12T06:38:29.817Z,89.57
2023-02-12T06:40:56.168Z,89.60
2023-02-12T06:43:22.521Z,89.60
2023-02-12T06:45:48.866Z,89.66
2023-02-12T06:48:15.185Z,89.82
2023-02-12T06:50:41.482Z,89.82
2023-02-12T06:53:07.903Z,89.87
2023-02-12T06:55:34.788Z,90.05
2023-02-12T06:58:01.097Z,90.01
2023-02-12T07:00:27.740Z,89.90
2023-02-12T07:02:55.604Z,89.81
2023-02-12T07:05:23.169Z,89.81
2023-02-12T07:07:49.700Z,89.83
2023-02-12T07:10:17.203Z,89.80
2023-02-12T07:12:43.610Z,89.76
2023-02-12T07:15:15.457Z,89.65
2023-02-12T07:17:42.051Z,89.72
2023-02-12T07:20:08.875Z,89.78
2023-02-12T07:22:38.423Z,89.54
2023-02-12T07:25:05.223Z,89.76
2023-02-12T07:27:31.611Z,89.69
2023-02-12T07:29:57.953Z,89.66
2023-02-12T07:32:24.314Z,89.47
2023-02-12T07:34:50.679Z,89.55
2023-02-12T07:37:22.401Z,89.81
2023-02-12T07:39:49.497Z,89.74
2023-02-12T07:42:15.838Z,89.72
2023-02-12T07:44:42.128Z,89.60
2023-02-12T07:47:08.464Z,89.69
2023-02-12T07:49:34.984Z,89.67
2023-02-12T07:52:03.158Z,89.78
2023-02-12T07:54:34.016Z,89.95
2023-02-12T07:57:00.639Z,89.94
2023-02-12T07:59:27.030Z,89.86
2023-02-12T08:01:53.675Z,89.71
2023-02-12T08:04:25.174Z,88.87
2023-02-12T08:06:54.234Z,88.93
2023-02-12T08:09:30.879Z,89.29
2023-02-12T08:11:58.168Z,89.26
2023-02-12T08:14:24.765Z,89.11
2023-02-12T08:16:51.661Z,88.86
2023-02-12T08:19:22.554Z,88.71
2023-02-12T08:21:52.829Z,88.73
2023-02-12T08:24:20.035Z,88.76
2023-02-12T08:26:46.842Z,88.70
2023-02-12T08:29:16.473Z,88.12
2023-02-12T08:31:47.576Z,88.33
2023-02-12T08:34:25.577Z,88.35
2023-02-12T08:36:56.509Z,88.20
2023-02-12T08:39:24.686Z,88.46
2023-02-12T08:41:51.892Z,88.66
2023-02-12T08:44:18.515Z,88.65
2023-02-12T08:46:46.974Z,88.55
2023-02-12T08:49:18.986Z,88.64
2023-02-12T08:51:50.741Z,88.45
2023-02-12T08:54:21.194Z,88.24
2023-02-12T08:56:47.610Z,88.41
2023-02-12T08:59:15.169Z,88.36
2023-02-12T09:01:42.796Z,88.44
2023-02-12T09:04:18.674Z,88.14
2023-02-12T09:06:46.552Z,87.99
2023-02-12T09:09:13.793Z,88.31
2023-02-12T09:11:41.097Z,88.18
2023-02-12T09:14:10.830Z,87.58
2023-02-12T09:16:39.600Z,87.12
2023-02-12T09:19:06.686Z,87.14
2023-02-12T09:21:33.411Z,87.17
2023-02-12T09:24:01.406Z,87.25
2023-02-12T09:26:27.777Z,87.51
2023-02-12T09:28:54.968Z,87.51
2023-02-12T09:31:29.675Z,87.30
2023-02-12T09:34:00.533Z,87.56
2023-02-12T09:36:28.022Z,87.49
2023-02-12T09:38:54.768Z,87.49
2023-02-12T09:41:26.770Z,87.38
2023-02-12T09:44:11.831Z,87.17
2023-02-12T09:46:38.139Z,86.68
2023-02-12T09:49:10.276Z,86.74
2023-02-12T09:51:39.994Z,86.71
2023-02-12T09:54:11.730Z,86.41
2023-02-12T09:56:41.604Z,86.06
2023-02-12T09:59:08.834Z,86.00
2023-02-12T10:01:35.669Z,85.77
2023-02-12T10:04:04.872Z,85.50
2023-02-12T10:06:41.631Z,85.26
2023-02-12T10:09:29.197Z,85.50
2023-02-12T10:12:19.082Z,85.48
2023-02-12T10:15:02.788Z,85.37
2023-02-12T10:17:48.813Z,85.57
2023-02-12T10:20:31.582Z,85.49
2023-02-12T10:23:08.068Z,85.36
2023-02-12T10:26:01.275Z,85.10
2023-02-12T10:28:39.236Z,85.05
2023-02-12T10:31:12.959Z,84.93
2023-02-12T10:33:43.812Z,84.65
2023-02-12T10:36:25.112Z,84.67
2023-02-12T10:38:58.245Z,84.43
2023-02-12T10:41:28.172Z,84.17
2023-02-12T10:43:54.539Z,84.17
2023-02-12T10:46:20.898Z,84.41
2023-02-12T10:48:54.011Z,84.53
2023-02-12T10:51:56.531Z,83.66
2023-02-12T10:54:49.065Z,83.76
2023-02-12T10:57:27.407Z,84.03
2023-02-12T10:59:57.344Z,83.43
2023-02-12T11:02:30.870Z,83.30
2023-02-12T11:04:59.175Z,83.80
2023-02-12T11:07:27.432Z,83.32
2023-02-12T11:09:55.716Z,83.35
2023-02-12T11:12:48.002Z,83.09
2023-02-12T11:15:17.584Z,82.63
2023-02-12T11:17:55.001Z,82.93
2023-02-12T11:20:28.156Z,82.48
2023-02-12T11:23:03.920Z,82.33
2023-02-12T11:25:34.023Z,82.22
2023-02-12T11:28:19.056Z,81.90
2023-02-12T11:31:22.263Z,82.03
2023-02-12T11:34:12.094Z,81.95
2023-02-12T11:36:44.893Z,81.97
2023-02-12T11:39:22.862Z,82.08
2023-02-12T11:41:53.659Z,81.58
2023-02-12T11:44:35.302Z,81.94
2023-02-12T11:47:16.587Z,81.01
2023-02-12T11:49:59.678Z,80.94
2023-02-12T11:52:31.125Z,80.55
2023-02-12T11:55:01.359Z,80.63
2023-02-12T11:57:49.682Z,80.60
2023-02-12T12:00:42.075Z,80.87
2023-02-12T12:03:11.304Z,80.87
2023-02-12T12:05:45.890Z,80.35
2023-02-12T12:08:29.689Z,80.13
2023-02-12T12:11:11.068Z,80.01
2023-02-12T12:13:44.501Z,79.73
2023-02-12T12:16:34.694Z,79.50
2023-02-12T12:19:34.754Z,79.31
2023-02-12T12:22:09.227Z,78.94
2023-02-12T12:24:53.425Z,79.35
2023-02-12T12:27:58.571Z,78.66
2023-02-12T12:30:40.763Z,78.90
2023-02-12T12:33:19.904Z,78.81
2023-02-12T12:36:32.776Z,78.95
2023-02-12T12:39:05.282Z,79.68
2023-02-12T12:41:47.935Z,79.56
2023-02-12T12:44:57.147Z,79.30
2023-02-12T12:47:40.509Z,78.79
2023-02-12T12:50:12.813Z,78.68
2023-02-12T12:52:51.159Z,79.14
2023-02-12T12:55:32.865Z,78.12
2023-02-12T12:58:28.249Z,78.46
2023-02-12T13:01:18.888Z,78.22
2023-02-12T13:04:37.419Z,78.02
2023-02-12T13:07:19.937Z,78.54
2023-02-12T13:09:49.977Z,78.07
2023-02-12T13:12:37.174Z,78.41
2023-02-12T13:15:37.620Z,77.75
2023-02-12T13:18:14.205Z,77.82
2023-02-12T13:20:49.669Z,77.51
2023-02-12T13:23:45.905Z,78.01
2023-02-12T13:26:23.881Z,77.72
2023-02-12T13:28:59.008Z,77.57
2023-02-12T13:31:33.385Z,77.66
2023-02-12T13:34:07.373Z,78.24
2023-02-12T13:36:40.624Z,77.96
2023-02-12T13:39:15.625Z,78.08
2023-02-12T13:41:47.897Z,78.01
2023-02-12T13:44:32.516Z,77.93
2023-02-12T13:47:40.784Z,77.42
2023-02-12T13:50:32.507Z,77.27
2023-02-12T13:53:06.544Z,77.46
2023-02-12T13:56:01.998Z,77.40
2023-02-12T13:58:31.645Z,77.36
2023-02-12T14:01:04.458Z,77.74
2023-02-12T14:03:31.845Z,77.68
2023-02-12T14:06:20.360Z,76.97
2023-02-12T14:08:51.195Z,77.08
2023-02-12T14:11:20.576Z,76.81
2023-02-12T14:13:58.554Z,76.81
2023-02-12T14:16:30.827Z,77.59
2023-02-12T14:19:34.546Z,77.28
2023-02-12T14:22:02.488Z,76.90
2023-02-12T14:24:38.107Z,76.91
2023-02-12T14:27:21.050Z,77.02
2023-02-12T14:30:21.422Z,76.95
2023-02-12T14:32:53.317Z,76.74
2023-02-12T14:35:35.195Z,76.96
2023-02-12T14:38:03.342Z,76.68
2023-02-12T14:40:33.074Z,76.45
2023-02-12T14:43:01.081Z,76.57
2023-02-12T14:45:45.613Z,76.88
2023-02-12T14:48:50.331Z,76.86
2023-02-12T14:51:41.178Z,76.76
2023-02-12T14:54:16.223Z,76.78
2023-02-12T14:56:48.817Z,76.47
2023-02-12T14:59:20.351Z,76.56
2023-02-12T15:01:48.116Z,76.65
2023-02-12T15:04:29.045Z,76.79
2023-02-12T15:07:20.442Z,77.04
2023-02-12T15:09:52.465Z,77.25
2023-02-12T15:12:26.357Z,77.26
2023-02-12T15:15:24.058Z,77.57
2023-02-12T15:18:17.031Z,77.51
2023-02-12T15:20:53.830Z,77.15
2023-02-12T15:23:50.083Z,77.19
2023-02-12T15:26:19.242Z,76.82
2023-02-12T15:28:48.342Z,76.88
2023-02-12T15:31:22.578Z,76.91
2023-02-12T15:33:51.205Z,77.08
2023-02-12T15:36:21.685Z,76.05
2023-02-12T15:38:56.971Z,76.66
2023-02-12T15:41:34.234Z,77.04
2023-02-12T15:44:04.284Z,77.02
2023-02-12T15:46:30.723Z,77.43
2023-02-12T15:48:57.938Z,77.82
2023-02-12T15:51:34.804Z,77.82
2023-02-12T15:54:05.122Z,77.85
2023-02-12T15:56:33.801Z,77.72
2023-02-12T15:59:01.989Z,77.25
2023-02-12T16:01:32.082Z,77.23
2023-02-12T16:04:01.261Z,77.18
2023-02-12T16:06:31.527Z,77.60
2023-02-12T16:09:26.042Z,77.44
2023-02-12T16:11:52.626Z,77.63
2023-02-12T16:14:23.583Z,77.74
2023-02-12T16:16:52.792Z,77.98
2023-02-12T16:19:37.118Z,78.38
2023-02-12T16:22:08.682Z,77.79
2023-02-12T16:24:38.801Z,78.03
2023-02-12T16:27:18.602Z,78.33
2023-02-12T16:29:49.321Z,78.69
2023-02-12T16:32:38.393Z,78.72
2023-02-12T16:35:10.690Z,78.68
2023-02-12T16:37:36.987Z,78.38
2023-02-12T16:40:12.743Z,78.69
2023-02-12T16:42:56.377Z,78.48
2023-02-12T16:45:30.870Z,78.40
2023-02-12T16:48:04.044Z,78.55
2023-02-12T16:50:33.068Z,78.81
2023-02-12T16:53:04.989Z,79.01
2023-02-12T16:55:31.890Z,78.78
2023-02-12T16:57:58.241Z,78.64
2023-02-12T17:00:24.719Z,78.58
2023-02-12T17:02:51.055Z,78.86
2023-02-12T17:05:18.391Z,78.66
2023-02-12T17:07:44.746Z,78.73
2023-02-12T17:10:17.509Z,79.30
2023-02-12T17:12:52.661Z,78.52
2023-02-12T17:15:30.256Z,78.83
2023-02-12T17:17:56.627Z,79.11
2023-02-12T17:20:22.958Z,79.19
2023-02-12T17:22:53.293Z,79.15
2023-02-12T17:25:20.483Z,78.86
2023-02-12T17:27:46.794Z,78.49
2023-02-12T17:30:19.583Z,78.72
2023-02-12T17:32:46.074Z,78.95
2023-02-12T17:35:12.878Z,78.95
2023-02-12T17:37:39.270Z,78.83
2023-02-12T17:40:06.826Z,79.08
2023-02-12T17:42:33.428Z,79.33
2023-02-12T17:44:59.853Z,79.91
2023-02-12T17:47:26.238Z,79.81
2023-02-12T17:49:52.577Z,79.75
2023-02-12T17:52:18.982Z,79.58
2023-02-12T17:54:45.777Z,78.94
2023-02-12T17:57:13.049Z,78.82
2023-02-12T17:59:40.917Z,78.60
2023-02-12T18:02:08.161Z,79.11
2023-02-12T18:04:35.807Z,79.57
2023-02-12T18:07:06.152Z,79.54
2023-02-12T18:09:33.062Z,79.62
2023-02-12T18:11:59.630Z,79.35
2023-02-12T18:14:25.957Z,79.24
2023-02-12T18:16:52.365Z,79.09
2023-02-12T18:19:18.726Z,79.16
2023-02-12T18:21:45.057Z,80.32
2023-02-12T18:24:11.503Z,80.78
2023-02-12T18:26:37.803Z,81.09
2023-02-12T18:29:04.155Z,80.92
2023-02-12T18:31:30.714Z,80.58
2023-02-12T18:33:57.053Z,80.60
2023-02-12T18:36:23.685Z,81.11
2023-02-12T18:38:51.431Z,81.11
2023-02-12T18:41:22.120Z,81.19
2023-02-12T18:43:48.810Z,81.62
2023-02-12T18:46:18.192Z,81.73
2023-02-12T18:48:45.059Z,81.68
2023-02-12T18:51:15.812Z,81.44
2023-02-12T18:53:43.102Z,81.00
2023-02-12T18:56:12.498Z,80.73
2023-02-12T18:58:39.510Z,81.00
2023-02-12T19:01:20.068Z,81.45
2023-02-12T19:03:48.547Z,81.40
2023-02-12T19:06:15.438Z,80.84
2023-02-12T19:08:43.315Z,80.98
2023-02-12T19:11:11.418Z,80.87
2023-02-12T19:13:38.990Z,80.93
2023-02-12T19:16:11.389Z,80.79
2023-02-12T19:18:38.194Z,80.73
2023-02-12T19:21:16.266Z,81.36
2023-02-12T19:23:43.009Z,81.24
2023-02-12T19:26:12.496Z,81.39
2023-02-12T19:28:39.537Z,81.14
2023-02-12T19:31:15.664Z,80.40
2023-02-12T19:33:43.156Z,80.50
2023-02-12T19:36:11.403Z,80.58
2023-02-12T19:38:38.502Z,80.79
2023-02-12T19:41:07.078Z,81.46
2023-02-12T19:43:33.730Z,82.06
2023-02-12T19:46:09.502Z,82.16
2023-02-12T19:48:36.455Z,81.71
2023-02-12T19:51:03.712Z,81.46
2023-02-12T19:53:30.256Z,81.57
2023-02-12T19:56:04.234Z,81.81
2023-02-12T19:58:31.154Z,81.75
2023-02-12T20:00:58.469Z,81.86
2023-02-12T20:03:26.190Z,82.06
2023-02-12T20:06:05.099Z,82.25
2023-02-12T20:08:33.027Z,82.01
2023-02-12T20:11:02.351Z,81.92
2023-02-12T20:13:28.817Z,82.25
2023-02-12T20:15:55.273Z,82.46
2023-02-12T20:18:21.631Z,82.57
2023-02-12T20:20:52.463Z,82.53
2023-02-12T20:23:18.987Z,82.44
2023-02-12T20:25:46.302Z,82.62
2023-02-12T20:28:12.680Z,82.48
2023-02-12T20:30:40.949Z,82.42
2023-02-12T20:33:07.367Z,82.37
2023-02-12T20:35:36.759Z,82.20
2023-02-12T20:38:05.054Z,82.45
2023-02-12T20:40:31.589Z,82.15
2023-02-12T20:42:58.067Z,82.25
2023-02-12T20:45:25.038Z,82.26
2023-02-12T20:47:51.782Z,82.53
2023-02-12T20:50:18.589Z,82.37
2023-02-12T20:52:44.979Z,81.94
2023-02-12T20:55:11.309Z,82.10
2023-02-12T20:57:37.925Z,82.14
2023-02-12T21:00:04.829Z,82.09
2023-02-12T21:02:31.141Z,81.99
2023-02-12T21:04:57.490Z,81.82
2023-02-12T21:07:23.821Z,81.90
2023-02-12T21:09:50.221Z,82.13
2023-02-12T21:12:16.558Z,82.25
2023-02-12T21:14:42.992Z,82.27
2023-02-12T21:17:09.311Z,82.38
2023-02-12T21:19:36.811Z,82.46
2023-02-12T21:22:03.170Z,82.46
2023-02-12T21:24:29.516Z,82.42
2023-02-12T21:26:56.160Z,82.47
2023-02-12T21:29:23.295Z,82.62
2023-02-12T21:31:50.841Z,82.78
2023-02-12T21:34:20.907Z,82.88
2023-02-12T21:36:48.976Z,82.73
2023-02-12T21:39:24.693Z,83.12
2023-02-12T21:41:54.527Z,82.79
2023-02-12T21:44:26.205Z,82.73
2023-02-12T21:46:55.964Z,82.41
2023-02-12T21:49:25.030Z,82.26
2023-02-12T21:51:53.566Z,82.07
2023-02-12T21:54:20.761Z,82.28
2023-02-12T21:56:54.317Z,82.01
2023-02-12T21:59:21.158Z,82.18
2023-02-12T22:01:50.970Z,82.05
2023-02-12T22:04:20.642Z,82.02
2023-02-12T22:06:50.263Z,82.51
2023-02-12T22:09:18.594Z,83.05
2023-02-12T22:11:45.282Z,83.23
2023-02-12T22:14:15.744Z,83.43
2023-02-12T22:16:42.845Z,83.06
2023-02-12T22:19:09.660Z,83.19
2023-02-12T22:21:39.418Z,83.27
2023-02-12T22:24:07.801Z,83.44
2023-02-12T22:26:38.256Z,83.51
2023-02-12T22:29:08.471Z,83.22
2023-02-12T22:31:38.199Z,82.90
2023-02-12T22:34:11.196Z,82.76
2023-02-12T22:36:41.597Z,82.71
2023-02-12T22:39:08.822Z,82.60
2023-02-12T22:41:35.339Z,82.57
2023-02-12T22:44:05.012Z,82.56
2023-02-12T22:46:32.146Z,82.56
2023-02-12T22:48:58.883Z,82.46
2023-02-12T22:51:28.035Z,82.45
2023-02-12T22:53:57.405Z,82.29
2023-02-12T22:56:25.238Z,82.46
2023-02-12T22:59:00.461Z,82.83
2023-02-12T23:01:31.622Z,82.96
2023-02-12T23:03:58.460Z,82.79
2023-02-12T23:06:27.521Z,82.60
2023-02-12T23:08:57.866Z,82.71
2023-02-12T23:11:25.233Z,82.49
2023-02-12T23:13:52.257Z,82.67
2023-02-12T23:16:18.803Z,82.91
2023-02-12T23:18:45.118Z,83.03
2023-02-12T23:21:11.715Z,83.15
2023-02-12T23:23:38.177Z,83.04
2023-02-12T23:26:04.840Z,83.08
2023-02-12T23:28:31.530Z,83.32
2023-02-12T23:30:58.623Z,83.39
2023-02-12T23:33:25.330Z,83.48
2023-02-12T23:35:51.694Z,83.42
2023-02-12T23:38:18.409Z,83.33
2023-02-12T23:40:44.805Z,83.47
2023-02-12T23:43:11.193Z,83.56
2023-02-12T23:45:37.668Z,83.44
2023-02-12T23:48:04.354Z,83.82
2023-02-12T23:50:30.764Z,83.84
2023-02-12T23:53:01.945Z,83.69
2023-02-12T23:55:28.553Z,83.76
2023-02-12T23:57:54.987Z,83.61
